Aldine, Texas
Current Conditions -  °F | °C
As of 3:45 AM on Thursday 18 Dec 2014 (Local Time) from KIAH Reporting Station
Heavy Rain Heavy Rain  
Wind Chill: 59°   Ceiling: 600
Heat Index: 59°   Visibility: 4mi
Dew Point: 57°   Wind: 7mph
Humidity: 94%   Direction: 90°E
Pressure: 30.06"   Gusts: NA
Location:  29.93°N, 95.38°W
Report Text: KIAH 180945Z 09006KT 4SM +RA BR BKN006 OVC022 15/14 A3006 RMK AO2 RAB24 P0005
Loading
Personal Weather Stations






























Interactive Weather Map New forecast layout! Learn more

10-Day Weather Forecast

Advertisements
Track Severe Weather on mobile